KSAT/SAT METAR and TAF weather

Enter ICAO airport designator
Station Type Date Time Source
KSAT METAR 2019/11/21 03:51 UTC NOAA

KSAT 210351Z 15011KT 10SM SCT016 SCT250 22/18 A2995 RMK AO2 SLP127 T02170183


Station Type Date Time Source
KSAT Decoded METAR 2019/11/21 03:51 UTC NOAA

SAN ANTONIO INTERNATIONAL AIRPORT , TX, United States (KSAT) 29-32N 098-28W 243M
Nov 20, 2019 - 10:51 PM EST / 2019.11.21 0351 UTC
Wind: from the SSE (150 degrees) at 13 MPH (11 KT):0
Visibility: 10 mile(s):0
Sky conditions: partly cloudy
Temperature: 71.1 F (21.7 C)
Dew Point: 64.9 F (18.3 C)
Relative Humidity: 81%
Pressure (altimeter): 29.95 in. Hg (1014 hPa)
ob: KSAT 210351Z 15011KT 10SM SCT016 SCT250 22/18 A2995 RMK AO2 SLP127 T02170183
cycle: 4

Station Type Date Time Source
KSAT TAF 2019/11/21 03:16 UTC NOAA

TAF
AMD KSAT 210314Z 2103/2206 14015KT P6SM BKN012 BKN250
FM212000 15013KT P6SM BKN035
FM220300 16010KT P6SM OVC012

Example: see airport list